Stuart, OK (74570)

7:37 AM CDT on September 02, 2014 (GMT -0500)
Horntown OK | Change Station
CLOSE
Current Station
Personal Weather Station
Location: Holdenville, OK
Elevation: 827 ft
Nearby Weather Stations

Elev 827 ft 35.08 °N, 96.26 °W | Updated 3 minutes ago

Clear
Clear
77.4 °F
Feels Like 79 °F
N
7.3
Wind Variable Wind from South

Today
High -- | Low -- °F
--% Chance of Precip.
Yesterday
High -- | Low -- °F
Precip. -- in
6:58 AM 7:49 PM
Waxing Crescent, 51% visible
Pressure 29.90 in
Visibility 10.0 miles
Clouds Few 7500 ft
Few 9500 ft
Heat Index 79 °F
Dew Point 74 °F
Humidity 88%
Rainfall 0.00 in
Snow Depth Not available.
UV 0 out of 12
Pollen 9.10 out of 12
Air Quality Not available.
Flu Activity Not available.
METAR KMLC 021153Z AUTO 17007KT 10SM FEW075 FEW095 26/22 A2993 RMK AO2 SLP125 T02560222 10283 20256 53014

More Conditions Fewer Conditions

Pressure 29.90 in
Visibility 10.0 miles
Clouds Few 7500 ft
Few 9500 ft
Heat Index 79 °F
Dew Point 74 °F
Humidity 88%
Rainfall 0.00 in
Snow Depth Not available.
UV 0 out of 12
Pollen 9.10 out of 12
Air Quality Not available.
Flu Activity Not available.
METAR KMLC 021153Z AUTO 17007KT 10SM FEW075 FEW095 26/22 A2993 RMK AO2 SLP125 T02560222 10283 20256 53014

More Conditions Fewer Conditions

10-Day Weather Forecast

Almanac

Astronomy

Sep. 02, 2014 Rise Set
Actual Time 6:58 AM CDT 7:49 PM CDT
Civil Twilight 6:32 AM CDT 8:15 PM CDT
Nautical Twilight 6:01 AM CDT 8:45 PM CDT
Astronomical Twilight 5:30 AM CDT 9:17 PM CDT
Moon 2:26 PM CDT 12:09 AM CDT
Length of Visible Light 13h 43m
Length of Day
12h 51m
Tomorrow will be 2m 6s shorter.
Waxing Crescent, 51% of the Moon is Illuminated
Today
Waxing Crescent
Sep 8
Full
Sep 15
Last Quarter
Sep 24
New
Oct 1
First Quarter

Today's Extremes

State Highs State Lows

Community

WunderPhotos

Upload Photos

1,749,642 photos uploaded!

WunderBlogs® & News

By Dr. Jeff Masters
Director of Meteorology, Weather Underground
By Kari Strenfel
Meteorologist, Weather Underground
By Christopher C. Burt
Weather Historian, Weather Underground
September 2, 2014
September 2, 2014
September 2, 2014

Nearby

Snow Depth

Station Depth Elevation
No new snow has been reported.

Earthquake Activity

City Distance Mag. Time & Date
Medford, Oklahoma 159 miles 3.3 11:58 PM CDT
2014-09-01
Perry, Oklahoma 113 miles 3.1 6:46 AM CDT
2014-09-01
Jones, Oklahoma 79 miles 3.1 1:49 PM CDT
2014-08-31
Enid, Oklahoma 155 miles 3.4 11:57 AM CDT
2014-08-31
Minimum magnitude displayed is 2.5.

Coastal Water Temperatures

Place Temperature
No Stations Reporting

Nearby Weather Stations